Portada
METAR-TAF:

METAR-TAF

Aeropuertos :

Altenstadt, Alemania

latitud: 47-50N, longitud: 010-52E, altitud: 739 m

Observación

El informe se hizo hace 59 minutos, a las 05:20 UTC
Viento 4 kt del norte
Temperatura 10°C
Humedad 93%
Presión 1007 hPa

METAR: ETHA 070520Z AUTO 35004KT //// // ////// 10/09 Q1007 ///

Hora: 08:19 (06:19 UTC)


TAF: falta

Observaciones y pronósticos meteorológicos de más de 4000 aeropuertos (mensajes METAR y TAF).

Los puntos amarillos y rojos representan las estaciones disponibles.

Ponga el ratón en el punto deseado para ver el nombre de la estación.

Haga clic para ver las observaciones y los pronósticos meteorológicos.

Para cambiar el mapa : haga clic en los botones verdes con una cruz de color negro para hacer un zoom, en el botón verde con un guión para alejar o en las flechas verdes para mapas adyacentes.


METAR-TAF: